Time;durP1;ratioP1;P1;durP2;ratioP2;P2;SDS_P1;SDS_P2;PMS_P1;PMS_P2;Temp;Humidity;BMP_temperature;BMP_pressure;BME280_temperature;BME280_humidity;BME280_pressure;Samples;Min_cycle;Max_cycle;Signal;HPM_P1;HPM_P2
2022/04/14 00:01:16;;;;;;;4.00;3.30;;;;;;;15.30;51.28;98752.19;7032621;28;20308;-79
2022/04/14 00:04:37;;;;;;;3.97;2.97;;;;;;;15.25;51.63;98748.50;7032966;28;20657;-78
2022/04/14 00:07:59;;;;;;;3.40;3.10;;;;;;;15.32;51.82;98752.78;7031926;28;20208;-79
2022/04/14 00:11:22;;;;;;;5.90;3.10;;;;;;;15.29;51.64;98747.78;7031195;28;20645;-79
2022/04/14 00:14:43;;;;;;;4.43;3.43;;;;;;;15.30;51.53;98745.91;7032056;28;20197;-79
2022/04/14 00:18:05;;;;;;;8.63;3.60;;;;;;;15.23;52.01;98739.78;7031881;28;20200;-79
2022/04/14 00:21:27;;;;;;;3.80;3.13;;;;;;;15.32;50.26;98735.63;7031953;28;20927;-79
2022/04/14 00:24:49;;;;;;;3.93;3.40;;;;;;;15.19;51.50;98753.00;7032265;28;20233;-79
2022/04/14 00:28:11;;;;;;;5.80;4.20;;;;;;;14.98;51.78;98731.03;7031588;28;20201;-79
2022/04/14 00:31:33;;;;;;;3.93;3.40;;;;;;;15.12;52.01;98754.19;7032247;28;20234;-80
2022/04/14 00:34:55;;;;;;;4.57;3.73;;;;;;;14.64;52.93;98750.78;7032285;28;20242;-79
2022/04/14 00:38:16;;;;;;;11.43;3.20;;;;;;;14.59;52.83;98737.94;7031682;28;20293;-80
2022/04/14 00:41:38;;;;;;;4.83;3.63;;;;;;;14.52;53.12;98752.66;7030681;28;20249;-79
2022/04/14 00:45:01;;;;;;;5.27;3.60;;;;;;;14.48;53.25;98706.16;7031577;28;20196;-80
2022/04/14 00:48:22;;;;;;;5.10;3.40;;;;;;;15.10;51.97;98745.44;7031144;28;20224;-80
2022/04/14 00:51:44;;;;;;;4.87;3.73;;;;;;;14.56;52.30;98748.38;7031552;28;20253;-79
2022/04/14 00:55:06;;;;;;;7.30;3.60;;;;;;;14.61;52.84;98754.78;7031164;28;20213;-79
2022/04/14 00:58:28;;;;;;;3.37;3.07;;;;;;;14.57;53.38;98763.63;7032312;28;20567;-79
2022/04/14 01:01:51;;;;;;;9.13;3.47;;;;;;;14.61;52.81;98773.78;7030804;28;20227;-80
2022/04/14 01:05:13;;;;;;;5.37;4.13;;;;;;;14.43;53.34;98760.28;7031880;28;20213;-79
2022/04/14 01:08:34;;;;;;;5.87;3.50;;;;;;;14.99;51.14;98789.69;7030775;28;20200;-79
2022/04/14 01:11:57;;;;;;;5.30;3.50;;;;;;;14.78;52.10;98785.63;7030584;28;20235;-80
2022/04/14 01:15:18;;;;;;;4.20;3.83;;;;;;;14.09;53.11;98762.81;7030944;28;20213;-80
2022/04/14 01:18:41;;;;;;;3.97;3.67;;;;;;;13.94;55.26;98789.47;7030425;28;20210;-79
2022/04/14 01:22:07;;;;;;;7.03;3.57;;;;;;;14.49;53.61;98782.94;7030502;28;20200;-79
2022/04/14 01:25:32;;;;;;;5.80;4.07;;;;;;;14.68;51.90;98776.41;7031010;28;20213;-79
2022/04/14 01:28:53;;;;;;;3.90;3.50;;;;;;;14.19;53.70;98785.66;7029940;28;20410;-78
2022/04/14 01:32:15;;;;;;;5.30;3.63;;;;;;;14.37;53.55;98787.50;7030328;28;20269;-79
2022/04/14 01:35:37;;;;;;;5.17;4.13;;;;;;;14.51;53.36;98794.41;7031011;28;20206;-79
2022/04/14 01:38:58;;;;;;;5.63;3.47;;;;;;;14.56;52.48;98775.53;7030504;28;20219;-79
2022/04/14 01:42:21;;;;;;;4.53;3.77;;;;;;;14.44;52.97;98780.94;7029241;28;20290;-79
2022/04/14 01:45:48;;;;;;;6.53;4.13;;;;;;;14.22;53.53;98787.09;7030090;28;20275;-79
2022/04/14 01:49:10;;;;;;;5.33;3.90;;;;;;;13.85;54.19;98780.81;7029873;28;20276;-79
2022/04/14 01:52:32;;;;;;;6.83;3.83;;;;;;;14.24;53.79;98795.81;7029963;28;20211;-79
2022/04/14 01:55:53;;;;;;;4.17;3.87;;;;;;;14.28;53.19;98784.25;7029490;28;20203;-80
2022/04/14 01:59:16;;;;;;;4.50;3.83;;;;;;;14.11;53.41;98794.03;7029894;28;20310;-80
2022/04/14 02:02:40;;;;;;;8.27;3.80;;;;;;;13.80;54.43;98785.28;7030087;28;20226;-79
2022/04/14 02:06:01;;;;;;;4.50;3.90;;;;;;;14.39;53.44;98797.06;7029969;28;20231;-79
2022/04/14 02:09:23;;;;;;;4.73;3.83;;;;;;;14.17;53.47;98811.31;7030205;28;20239;-79
2022/04/14 02:12:45;;;;;;;4.17;3.77;;;;;;;14.17;53.83;98814.81;7029843;28;20211;-80
2022/04/14 02:16:08;;;;;;;4.43;3.60;;;;;;;14.46;53.21;98813.25;7029489;28;20207;-79
2022/04/14 02:19:30;;;;;;;4.43;4.03;;;;;;;13.91;54.63;98808.91;7029917;28;20704;-79
2022/04/14 02:22:51;;;;;;;6.90;4.07;;;;;;;13.87;54.90;98813.13;7030342;28;20286;-80
2022/04/14 02:26:13;;;;;;;8.10;4.00;;;;;;;14.08;54.31;98824.34;7029188;28;20351;-79
2022/04/14 02:29:34;;;;;;;5.67;4.60;;;;;;;13.96;53.75;98812.59;7029909;28;20317;-79
2022/04/14 02:32:57;;;;;;;4.53;4.13;;;;;;;13.90;54.88;98829.78;7030644;28;20206;-80
2022/04/14 02:36:19;;;;;;;5.67;4.60;;;;;;;14.02;54.09;98835.25;7035219;28;20216;-79
2022/04/14 02:39:41;;;;;;;9.37;4.90;;;;;;;13.81;54.15;98831.09;7033665;28;20230;-79
2022/04/14 02:43:02;;;;;;;6.03;4.03;;;;;;;13.98;54.41;98832.16;7035420;28;20195;-79
2022/04/14 02:46:24;;;;;;;6.00;4.00;;;;;;;13.43;55.55;98830.47;7035105;28;20320;-79
2022/04/14 02:49:47;;;;;;;5.47;4.33;;;;;;;13.88;54.94;98837.31;7035178;28;20324;-79
2022/04/14 02:53:08;;;;;;;7.20;4.60;;;;;;;13.39;55.32;98817.59;7034542;28;20248;-79
2022/04/14 02:56:30;;;;;;;6.23;4.00;;;;;;;13.77;54.89;98842.63;7034262;28;20231;-79
2022/04/14 02:59:51;;;;;;;5.97;4.60;;;;;;;13.60;55.42;98839.69;7034554;28;20226;-79
2022/04/14 03:03:13;;;;;;;5.20;4.40;;;;;;;13.78;55.03;98836.16;7034768;28;20240;-79
2022/04/14 03:06:36;;;;;;;7.67;4.70;;;;;;;13.80;54.49;98839.47;7034303;28;20298;-79
2022/04/14 03:09:57;;;;;;;6.63;4.50;;;;;;;13.63;54.66;98816.72;7034357;28;20226;-79
2022/04/14 03:13:20;;;;;;;9.47;4.50;;;;;;;13.53;54.70;98832.66;7034895;28;20259;-79
2022/04/14 03:16:42;;;;;;;5.10;4.30;;;;;;;13.67;55.10;98845.84;7035884;28;20206;-79
2022/04/14 03:20:04;;;;;;;6.43;4.83;;;;;;;13.58;54.74;98849.88;7038746;28;20720;-80
2022/04/14 03:23:27;;;;;;;7.20;4.80;;;;;;;13.17;56.31;98846.91;7039111;28;20200;-80
2022/04/14 03:26:48;;;;;;;7.13;4.33;;;;;;;13.64;55.11;98848.19;7038202;28;20211;-80
2022/04/14 03:30:11;;;;;;;8.60;4.60;;;;;;;13.41;55.49;98837.16;7035818;28;20260;-78
2022/04/14 03:33:33;;;;;;;8.93;5.03;;;;;;;12.97;56.51;98858.94;7034321;28;20567;-78
2022/04/14 03:36:54;;;;;;;5.30;4.80;;;;;;;13.44;55.72;98858.34;7033184;28;20285;-78
2022/04/14 03:40:17;;;;;;;5.83;4.80;;;;;;;13.38;55.43;98862.78;7032353;28;20230;-78
2022/04/14 03:43:39;;;;;;;5.33;4.77;;;;;;;12.93;56.12;98828.75;7032897;28;20184;-78
2022/04/14 03:47:01;;;;;;;7.10;5.13;;;;;;;13.19;56.43;98873.78;7032998;28;20677;-78
2022/04/14 03:50:22;;;;;;;6.40;4.67;;;;;;;13.12;56.73;98873.00;7033079;28;20278;-78
2022/04/14 03:53:45;;;;;;;12.50;7.17;;;;;;;13.10;56.28;98856.16;7032937;28;20214;-78
2022/04/14 03:57:08;;;;;;;5.90;4.70;;;;;;;13.45;55.75;98862.75;7032515;28;20235;-78
2022/04/14 04:00:29;;;;;;;9.93;5.57;;;;;;;13.33;55.53;98876.16;7033989;28;20231;-81
2022/04/14 04:03:51;;;;;;;6.10;4.93;;;;;;;13.29;55.67;98869.53;7035246;28;20202;-80
2022/04/14 04:07:12;;;;;;;13.13;5.30;;;;;;;12.94;56.77;98875.59;7043876;28;20856;-81
2022/04/14 04:10:34;;;;;;;6.20;5.20;;;;;;;13.20;56.42;98880.84;7043831;28;20226;-81
2022/04/14 04:13:57;;;;;;;6.00;4.67;;;;;;;13.34;55.77;98875.09;7033927;28;20239;-80
2022/04/14 04:17:19;;;;;;;5.10;4.60;;;;;;;13.26;55.96;98864.56;7033014;28;20885;-81
2022/04/14 04:20:41;;;;;;;7.43;5.00;;;;;;;13.17;55.65;98876.69;7033679;28;20258;-80
2022/04/14 04:24:02;;;;;;;6.27;4.63;;;;;;;13.41;55.17;98878.63;7033860;28;20193;-81
2022/04/14 04:27:24;;;;;;;5.10;4.60;;;;;;;13.21;55.66;98861.69;7033522;28;20231;-78
2022/04/14 04:30:48;;;;;;;11.23;5.77;;;;;;;13.30;55.85;98890.16;7033201;28;20230;-78
2022/04/14 04:34:09;;;;;;;7.67;5.27;;;;;;;12.74;56.86;98873.00;7033529;28;20210;-79
2022/04/14 04:37:31;;;;;;;6.93;5.23;;;;;;;13.07;56.79;98870.97;7032805;28;20206;-78
2022/04/14 04:40:55;;;;;;;8.70;5.27;;;;;;;12.86;56.67;98871.28;7031715;28;20305;-78
2022/04/14 04:44:16;;;;;;;9.17;6.17;;;;;;;12.95;56.88;98896.19;7032770;28;20198;-78
2022/04/14 04:47:39;;;;;;;7.10;5.83;;;;;;;13.01;56.84;98908.88;7031649;28;20214;-78
2022/04/14 04:51:01;;;;;;;8.97;5.80;;;;;;;13.20;56.43;98897.94;7008316;28;20241;-79
2022/04/14 04:54:22;;;;;;;10.90;5.20;;;;;;;13.48;55.60;98908.34;7003843;28;20204;-78
2022/04/14 04:57:44;;;;;;;5.53;5.03;;;;;;;13.32;56.20;98907.00;7014592;28;20647;-78
2022/04/14 05:01:05;;;;;;;7.70;5.33;;;;;;;13.30;55.80;98863.09;7014541;28;20710;-78
2022/04/14 05:04:28;;;;;;;6.17;5.33;;;;;;;13.23;56.19;98918.31;7027557;28;20270;-77
2022/04/14 05:07:50;;;;;;;8.70;5.20;;;;;;;13.00;57.15;98915.34;7017615;28;20249;-79
2022/04/14 05:11:11;;;;;;;7.37;5.60;;;;;;;13.39;56.46;98910.47;7017310;28;20227;-79
2022/04/14 05:14:33;;;;;;;7.03;5.77;;;;;;;13.31;56.99;98913.47;7014421;28;20204;-77
2022/04/14 05:17:55;;;;;;;10.13;5.57;;;;;;;13.09;57.64;98936.53;7019758;28;20246;-77
2022/04/14 05:21:18;;;;;;;7.60;5.57;;;;;;;13.03;58.35;98936.56;7012291;28;20217;-77
2022/04/14 05:24:39;;;;;;;12.63;6.30;;;;;;;13.37;57.56;98942.38;7003507;28;20206;-78
2022/04/14 05:28:01;;;;;;;7.33;5.67;;;;;;;13.49;57.44;98943.34;7002737;28;20211;-77
2022/04/14 05:31:22;;;;;;;8.87;5.57;;;;;;;13.50;56.66;98901.66;7002936;28;20231;-77
2022/04/14 05:34:44;;;;;;;10.43;6.43;;;;;;;13.97;56.07;98935.38;7019760;28;20227;-78
2022/04/14 05:38:07;;;;;;;7.60;5.30;;;;;;;14.06;55.66;98931.34;7030815;28;20353;-78
2022/04/14 05:41:29;;;;;;;7.93;5.93;;;;;;;14.27;54.79;98945.34;7029899;28;20303;-78
2022/04/14 05:44:50;;;;;;;8.70;5.70;;;;;;;14.11;55.95;98939.66;7030353;28;20231;-77
2022/04/14 05:48:13;;;;;;;6.97;5.83;;;;;;;14.27;55.82;98937.19;7030667;28;20218;-79
2022/04/14 05:51:35;;;;;;;12.23;6.93;;;;;;;14.58;55.46;98945.19;7031268;28;20565;-78
2022/04/14 05:55:01;;;;;;;7.70;6.10;;;;;;;14.32;55.75;98931.94;7031091;28;20276;-78
2022/04/14 05:58:23;;;;;;;8.70;6.53;;;;;;;14.52;55.69;98948.81;7031155;28;20566;-78
2022/04/14 06:01:45;;;;;;;6.30;5.70;;;;;;;14.80;55.23;98945.56;7030755;28;20309;-78
2022/04/14 06:05:08;;;;;;;9.60;6.10;;;;;;;14.91;54.26;98936.63;7030323;28;20203;-78
2022/04/14 06:08:29;;;;;;;7.00;5.90;;;;;;;15.14;54.58;98961.16;7028775;28;20231;-78
2022/04/14 06:11:52;;;;;;;9.50;5.80;;;;;;;15.26;54.03;98959.31;7022070;28;20277;-80
2022/04/14 06:15:14;;;;;;;8.37;5.73;;;;;;;15.36;53.56;98927.88;7014866;28;20205;-79
2022/04/14 06:18:35;;;;;;;14.47;6.10;;;;;;;16.15;52.28;98960.81;7016380;28;20219;-79
2022/04/14 06:21:57;;;;;;;8.10;6.50;;;;;;;16.23;51.75;98968.59;7034430;28;20242;-79
2022/04/14 06:25:22;;;;;;;10.67;6.50;;;;;;;16.19;51.75;98967.44;7035606;28;20192;-79
2022/04/14 06:28:47;;;;;;;7.50;5.67;;;;;;;16.27;51.43;98930.88;7035564;28;20835;-78
2022/04/14 06:32:09;;;;;;;9.23;6.40;;;;;;;16.60;51.11;98966.47;7035733;28;20220;-78
2022/04/14 06:35:31;;;;;;;8.07;5.70;;;;;;;16.82;51.32;98973.75;7035045;28;20282;-79
2022/04/14 06:38:53;;;;;;;12.70;6.97;;;;;;;17.23;49.86;98975.41;7034623;28;20286;-78
2022/04/14 06:42:14;;;;;;;7.70;5.70;;;;;;;17.41;49.90;98984.25;7036297;28;20204;-79
2022/04/14 06:45:37;;;;;;;11.73;6.37;;;;;;;18.01;48.28;98970.84;7036329;28;20211;-79
2022/04/14 06:48:59;;;;;;;9.10;6.50;;;;;;;18.52;47.13;98973.28;7035220;28;20221;-78
2022/04/14 06:52:21;;;;;;;9.33;6.53;;;;;;;18.28;47.54;98978.09;7031699;28;20225;-78
2022/04/14 06:55:47;;;;;;;10.43;6.70;;;;;;;18.31;47.50;98949.47;7008991;28;20236;-78
2022/04/14 06:59:09;;;;;;;11.37;7.10;;;;;;;18.64;47.29;98968.56;7027479;28;20221;-79
2022/04/14 07:02:34;;;;;;;9.73;6.30;;;;;;;19.11;46.41;98972.44;7035020;28;20212;-78
2022/04/14 07:06:00;;;;;;;13.57;7.37;;;;;;;20.00;44.81;98972.56;7007470;28;20273;-78
2022/04/14 07:09:21;;;;;;;19.37;14.73;;;;;;;20.12;45.69;98973.22;7025106;28;20699;-78
2022/04/14 07:12:45;;;;;;;16.47;12.53;;;;;;;19.75;46.96;98969.56;7022348;28;20223;-78
2022/04/14 07:16:07;;;;;;;20.17;15.07;;;;;;;20.25;46.07;98960.97;7033324;28;20210;-78
2022/04/14 07:19:30;;;;;;;18.13;15.93;;;;;;;20.66;45.92;98976.59;7033690;28;20225;-79
2022/04/14 07:22:52;;;;;;;18.80;15.70;;;;;;;20.77;46.05;98970.06;7033277;28;20686;-78
2022/04/14 07:26:14;;;;;;;20.47;14.90;;;;;;;21.41;43.81;98964.03;7033438;28;20208;-78
2022/04/14 07:29:36;;;;;;;21.27;15.60;;;;;;;20.20;46.31;98959.03;7033878;28;20224;-78
2022/04/14 07:32:58;;;;;;;20.87;17.00;;;;;;;20.85;45.94;98984.09;7033818;28;20225;-79
2022/04/14 07:36:21;;;;;;;23.23;17.23;;;;;;;20.89;46.00;98981.69;7031861;28;20278;-78
2022/04/14 07:39:42;;;;;;;22.70;17.50;;;;;;;20.26;47.18;98985.38;7033317;28;20225;-78
2022/04/14 07:43:04;;;;;;;23.17;16.60;;;;;;;21.15;45.99;98976.03;7034270;28;20201;-76
2022/04/14 07:46:26;;;;;;;21.10;15.67;;;;;;;21.57;45.02;98984.94;7033547;28;20205;-78
2022/04/14 07:49:47;;;;;;;17.17;15.03;;;;;;;22.24;42.78;98980.91;7033279;28;20245;-78
2022/04/14 07:53:10;;;;;;;23.03;16.57;;;;;;;22.52;43.09;98996.00;7033519;28;20226;-78
2022/04/14 07:56:33;;;;;;;20.53;16.03;;;;;;;22.36;42.84;99000.66;7033332;28;20604;-77
2022/04/14 07:59:54;;;;;;;19.13;15.07;;;;;;;22.54;42.74;98994.63;7033305;28;20710;-79
2022/04/14 08:03:16;;;;;;;21.73;17.23;;;;;;;22.65;43.30;98992.72;7032938;28;20204;-78
2022/04/14 08:06:37;;;;;;;26.63;16.77;;;;;;;23.14;41.61;99002.69;7032326;28;20212;-78
2022/04/14 08:10:00;;;;;;;22.57;16.73;;;;;;;23.15;42.57;99000.78;7033286;28;20724;-78
2022/04/14 08:13:25;;;;;;;22.97;16.23;;;;;;;23.26;42.07;99008.72;7033856;28;20220;-78
2022/04/14 08:16:46;;;;;;;20.93;17.47;;;;;;;22.97;42.25;98999.50;7033677;28;20307;-77
2022/04/14 08:20:09;;;;;;;23.93;17.13;;;;;;;22.85;42.86;98987.97;7027243;28;20229;-79
2022/04/14 08:23:31;;;;;;;19.53;15.77;;;;;;;23.25;41.89;99012.59;7030739;28;20211;-78
2022/04/14 08:26:54;;;;;;;19.53;17.43;;;;;;;23.07;42.25;98998.63;7029820;28;20290;-79
2022/04/14 08:30:17;;;;;;;19.67;15.93;;;;;;;23.11;42.90;98997.78;7029525;28;20667;-78
2022/04/14 08:33:38;;;;;;;19.73;15.83;;;;;;;23.30;42.82;98993.31;7025323;28;20312;-78
2022/04/14 08:37:00;;;;;;;20.23;16.57;;;;;;;23.79;41.34;98985.84;7006263;28;20206;-79
2022/04/14 08:40:22;;;;;;;20.43;17.10;;;;;;;23.82;41.22;98956.94;7006000;28;20233;-77
2022/04/14 08:43:48;;;;;;;23.80;17.77;;;;;;;24.44;39.96;98970.75;7008804;28;20205;-78
2022/04/14 08:47:11;;;;;;;25.77;17.97;;;;;;;24.44;40.14;98992.81;7010090;28;20208;-78
2022/04/14 08:50:33;;;;;;;24.03;14.33;;;;;;;23.30;41.67;99001.56;7021984;28;20230;-78
2022/04/14 08:53:54;;;;;;;18.27;14.77;;;;;;;23.81;41.36;99000.19;7032954;28;20285;-78
2022/04/14 08:57:16;;;;;;;18.57;15.10;;;;;;;23.99;40.71;99004.22;7028018;28;20204;-78
2022/04/14 09:00:39;;;;;;;19.23;15.30;;;;;;;24.42;39.65;98993.09;7012199;28;20229;-78
2022/04/14 09:04:01;;;;;;;19.50;15.67;;;;;;;24.55;39.66;98991.63;7023125;28;20776;-79
2022/04/14 09:07:23;;;;;;;24.90;15.50;;;;;;;24.50;39.04;98977.88;7025049;28;20290;-79
2022/04/14 09:10:45;;;;;;;17.33;15.13;;;;;;;24.21;39.83;98983.38;7004351;28;20230;-78
2022/04/14 09:14:06;;;;;;;19.43;15.37;;;;;;;24.58;38.64;98980.84;7004370;28;20572;-79
2022/04/14 09:17:29;;;;;;;21.43;15.57;;;;;;;25.55;37.46;99005.09;7004322;28;20201;-78
2022/04/14 09:21:03;;;;;;;19.70;16.10;;;;;;;25.45;38.03;98994.22;7026854;28;20596;-79
2022/04/14 09:24:39;;;;;;;20.70;15.53;;;;;;;25.95;36.80;98987.16;7032330;28;20340;-78
2022/04/14 09:28:09;;;;;;;16.63;14.23;;;;;;;26.17;35.61;99002.00;7027210;28;20197;-79
2022/04/14 09:31:30;;;;;;;22.10;15.37;;;;;;;26.23;35.82;98989.72;7002146;28;20234;-79
2022/04/14 09:34:54;;;;;;;22.17;16.00;;;;;;;25.61;36.50;98984.56;7003583;28;20697;-79
2022/04/14 09:38:16;;;;;;;20.80;14.63;;;;;;;25.82;35.86;98994.22;7003698;28;20205;-79
2022/04/14 09:41:38;;;;;;;15.63;13.50;;;;;;;26.25;36.28;98995.75;7025694;28;20597;-81
2022/04/14 09:45:19;;;;;;;18.70;14.93;;;;;;;25.97;36.61;98990.44;7012106;28;20199;-78
2022/04/14 09:49:00;;;;;;;17.13;14.00;;;;;;;26.15;37.87;98990.44;7030647;28;20204;-78
2022/04/14 09:52:23;;;;;;;21.80;15.63;;;;;;;26.39;36.52;98993.88;7019908;28;20692;-78
2022/04/14 09:55:57;;;;;;;20.23;14.93;;;;;;;26.86;35.10;98992.78;7003182;28;20680;-78
2022/04/14 09:59:19;;;;;;;17.47;14.27;;;;;;;27.27;34.91;98990.88;7006049;28;20307;-78
2022/04/14 10:02:41;;;;;;;20.27;14.80;;;;;;;26.48;36.29;98996.78;7002873;28;20212;-78
2022/04/14 10:06:06;;;;;;;18.53;14.83;;;;;;;26.77;35.57;98994.63;7002942;28;20211;-78
2022/04/14 10:09:30;;;;;;;26.27;16.33;;;;;;;27.13;34.84;98990.03;7019673;28;20247;-78
2022/04/14 10:12:51;;;;;;;19.40;15.47;;;;;;;27.02;35.55;98981.09;7003258;28;20246;-78
2022/04/14 10:16:13;;;;;;;19.10;16.17;;;;;;;26.73;35.15;98972.25;7027573;28;20284;-78
2022/04/14 10:19:36;;;;;;;18.00;15.27;;;;;;;27.00;35.32;98963.97;7025856;28;20226;-78
2022/04/14 10:22:59;;;;;;;22.37;16.00;;;;;;;26.52;36.47;98973.75;7006126;28;20202;-76
2022/04/14 10:26:22;;;;;;;18.73;15.80;;;;;;;26.38;36.93;98950.78;7003208;28;20201;-77
2022/04/14 10:29:44;;;;;;;18.87;15.60;;;;;;;27.28;35.24;98965.66;7002750;28;20228;-78
2022/04/14 10:33:06;;;;;;;17.87;15.97;;;;;;;27.36;34.46;98966.88;7002557;28;20245;-80
2022/04/14 10:36:27;;;;;;;18.90;14.60;;;;;;;27.99;34.32;98971.25;7002440;28;20921;-78
2022/04/14 10:39:49;;;;;;;17.80;14.17;;;;;;;27.45;34.04;98960.28;7002622;28;20584;-77
2022/04/14 10:43:14;;;;;;;19.47;15.03;;;;;;;26.15;36.46;98976.59;7028494;28;20223;-78
2022/04/14 10:46:40;;;;;;;18.13;13.87;;;;;;;27.18;35.27;98971.38;7025458;28;20210;-78
2022/04/14 10:50:02;;;;;;;18.67;13.80;;;;;;;27.45;34.94;98974.13;7029425;28;20231;-78
2022/04/14 10:53:24;;;;;;;16.97;12.33;;;;;;;28.23;33.33;98962.59;7029324;28;20383;-78
2022/04/14 10:56:50;;;;;;;16.10;12.53;;;;;;;26.78;35.34;98961.09;7035032;28;20229;-78
2022/04/14 11:00:36;;;;;;;15.63;13.47;;;;;;;26.73;34.88;98952.09;7035416;28;20244;-78
2022/04/14 11:03:58;;;;;;;16.50;13.00;;;;;;;25.52;37.04;98953.25;7036343;28;20277;-79
2022/04/14 11:07:21;;;;;;;17.43;13.57;;;;;;;25.63;36.15;98959.44;7036322;28;20210;-79
2022/04/14 11:10:52;;;;;;;14.60;12.90;;;;;;;26.28;35.54;98958.41;7036446;28;20240;-79
2022/04/14 11:14:24;;;;;;;19.50;13.27;;;;;;;27.35;34.56;98956.91;7034270;28;20215;-78
2022/04/14 11:18:02;;;;;;;17.10;14.30;;;;;;;27.35;33.58;98959.66;7032935;28;20207;-79
2022/04/14 11:21:32;;;;;;;16.83;13.93;;;;;;;27.21;34.07;98954.16;7033388;28;20732;-79
2022/04/14 11:24:54;;;;;;;15.03;12.63;;;;;;;25.80;36.53;98979.06;7034734;28;20204;-80
2022/04/14 11:28:24;;;;;;;17.37;13.23;;;;;;;27.12;34.84;98950.44;7035740;28;20197;-80
2022/04/14 11:31:46;;;;;;;16.73;12.47;;;;;;;27.42;33.76;98965.63;7036539;28;20238;-79
2022/04/14 11:35:13;;;;;;;13.87;12.20;;;;;;;26.24;35.92;98968.44;7036912;28;20317;-80
2022/04/14 11:38:57;;;;;;;16.57;12.23;;;;;;;27.32;34.32;98960.31;7039481;28;20197;-80
2022/04/14 11:42:18;;;;;;;13.73;11.53;;;;;;;27.62;33.53;98967.94;7038888;28;20673;-80
2022/04/14 11:45:40;;;;;;;14.40;11.20;;;;;;;27.61;33.41;98975.41;7036802;28;20212;-79
2022/04/14 11:49:02;;;;;;;15.37;10.60;;;;;;;28.10;32.18;98969.03;7036405;28;20228;-80
2022/04/14 11:52:25;;;;;;;11.40;10.30;;;;;;;27.31;32.93;98967.78;7036639;28;20701;-79
2022/04/14 11:55:46;;;;;;;11.90;10.57;;;;;;;26.75;33.71;98969.19;7033889;28;20286;-78
2022/04/14 11:59:09;;;;;;;12.37;10.33;;;;;;;25.96;34.32;98977.75;7036020;28;20234;-78
2022/04/14 12:02:31;;;;;;;11.93;8.20;;;;;;;25.94;34.40;98978.03;7033643;28;20208;-79
2022/04/14 12:05:53;;;;;;;10.97;8.63;;;;;;;25.27;33.78;98969.31;7033260;28;20209;-79
2022/04/14 12:09:20;;;;;;;9.67;7.47;;;;;;;26.60;32.38;98959.22;7031821;28;20238;-78
2022/04/14 12:12:41;;;;;;;9.03;8.10;;;;;;;26.57;32.54;98943.25;7033165;28;20234;-79
2022/04/14 12:16:05;;;;;;;12.40;8.60;;;;;;;26.22;32.39;98960.44;7010290;28;20660;-78
2022/04/14 12:19:40;;;;;;;10.53;8.40;;;;;;;26.88;31.68;98960.91;7029939;28;20274;-79
2022/04/14 12:23:02;;;;;;;15.97;9.43;;;;;;;26.87;32.24;98941.81;7034091;28;20190;-78
2022/04/14 12:26:28;;;;;;;13.90;8.97;;;;;;;26.95;33.33;98961.31;7033742;28;20202;-79
2022/04/14 12:29:50;;;;;;;11.73;9.67;;;;;;;26.08;34.30;98951.28;7033995;28;20226;-78
2022/04/14 12:33:11;;;;;;;12.43;9.77;;;;;;;26.67;33.55;98951.34;7033793;28;20229;-77
2022/04/14 12:36:35;;;;;;;11.47;9.07;;;;;;;26.10;35.00;98956.50;7033489;28;20281;-78
2022/04/14 12:39:58;;;;;;;12.63;9.87;;;;;;;27.10;33.63;98949.09;7035417;28;20222;-79
2022/04/14 12:43:26;;;;;;;13.57;9.87;;;;;;;26.94;32.92;98942.22;7035971;28;20240;-80
2022/04/14 12:46:50;;;;;;;13.43;9.00;;;;;;;26.86;32.45;98956.78;7034689;28;20226;-80
2022/04/14 12:50:13;;;;;;;13.10;9.13;;;;;;;26.68;33.56;98943.88;7033753;28;20254;-80
2022/04/14 12:53:35;;;;;;;11.47;8.70;;;;;;;26.25;33.75;98940.47;7035322;28;20231;-80
2022/04/14 12:56:59;;;;;;;11.43;7.60;;;;;;;27.22;31.96;98916.22;7035119;28;20204;-80
2022/04/14 13:00:22;;;;;;;11.27;8.60;;;;;;;26.50;32.59;98937.28;7023301;28;20224;-80
2022/04/14 13:03:47;;;;;;;8.90;7.67;;;;;;;26.95;32.08;98935.59;7008870;28;20628;-80
2022/04/14 13:07:09;;;;;;;13.20;8.67;;;;;;;26.20;33.62;98921.22;7014418;28;20195;-79
2022/04/14 13:10:34;;;;;;;11.20;8.57;;;;;;;27.22;32.26;98917.03;7007918;28;20227;-80
2022/04/14 13:13:56;;;;;;;8.47;7.40;;;;;;;27.29;31.19;98927.69;7022734;28;20231;-80
2022/04/14 13:17:19;;;;;;;10.07;8.37;;;;;;;27.13;32.11;98902.25;7032922;28;20701;-80
2022/04/14 13:20:41;;;;;;;11.90;7.33;;;;;;;27.21;31.81;98892.44;7034409;28;20231;-80
2022/04/14 13:24:03;;;;;;;13.67;9.67;;;;;;;27.04;32.12;98923.50;7030683;28;20666;-81
2022/04/14 13:27:24;;;;;;;11.63;7.97;;;;;;;27.41;31.90;98869.81;7035154;28;20719;-81
2022/04/14 13:30:46;;;;;;;13.20;7.37;;;;;;;27.52;31.34;98905.28;7027273;28;20215;-80
2022/04/14 13:34:10;;;;;;;11.87;8.37;;;;;;;26.93;32.30;98907.38;7030329;28;20223;-80
2022/04/14 13:37:32;;;;;;;11.47;8.70;;;;;;;26.79;32.96;98912.91;7011524;28;20202;-80
2022/04/14 13:40:53;;;;;;;8.87;7.70;;;;;;;27.03;32.12;98923.78;7025727;28;20220;-80
2022/04/14 13:44:15;;;;;;;10.23;7.77;;;;;;;27.60;31.57;98921.16;7032172;28;20209;-80
2022/04/14 13:47:39;;;;;;;15.70;9.03;;;;;;;27.51;32.42;98923.03;7033206;28;20211;-80
2022/04/14 13:51:02;;;;;;;11.87;7.80;;;;;;;27.54;33.24;98919.63;7034756;28;20222;-80
2022/04/14 13:54:24;;;;;;;12.97;9.13;;;;;;;27.09;32.89;98933.63;7034190;28;20232;-79
2022/04/14 13:57:46;;;;;;;11.87;8.50;;;;;;;27.44;32.43;98927.34;7035700;28;20199;-80
2022/04/14 14:01:08;;;;;;;11.80;8.53;;;;;;;26.41;33.25;98918.91;7050075;28;20266;-80
2022/04/14 14:04:29;;;;;;;11.13;7.83;;;;;;;27.42;32.67;98911.03;7049410;28;20198;-81
2022/04/14 14:07:52;;;;;;;12.27;8.67;;;;;;;27.75;31.85;98923.56;7048716;28;20208;-79
2022/04/14 14:11:14;;;;;;;11.73;8.60;;;;;;;27.37;32.58;98919.47;7037744;28;20326;-79
2022/04/14 14:14:36;;;;;;;11.17;8.50;;;;;;;27.79;32.32;98915.47;7033596;28;20228;-79
2022/04/14 14:17:57;;;;;;;15.23;8.70;;;;;;;27.09;33.25;98919.78;7022496;28;20198;-79
2022/04/14 14:21:19;;;;;;;10.50;8.57;;;;;;;27.47;32.07;98912.88;7029686;28;20213;-79
2022/04/14 14:24:42;;;;;;;11.00;8.07;;;;;;;27.42;33.00;98908.28;7032580;28;20203;-79
2022/04/14 14:28:05;;;;;;;11.43;8.53;;;;;;;26.90;33.38;98916.31;7032871;28;20211;-79
2022/04/14 14:31:26;;;;;;;12.07;8.67;;;;;;;26.08;34.24;98909.81;7038203;28;20234;-79
2022/04/14 14:34:48;;;;;;;10.73;8.60;;;;;;;26.46;33.91;98869.88;7038913;28;20606;-80
2022/04/14 14:38:09;;;;;;;10.20;8.13;;;;;;;27.32;32.91;98914.03;7036410;28;20199;-79
2022/04/14 14:41:32;;;;;;;11.13;8.17;;;;;;;27.36;33.00;98914.25;7037648;28;20707;-80
2022/04/14 14:44:54;;;;;;;16.03;8.30;;;;;;;26.75;33.43;98911.91;7037294;28;20220;-80
2022/04/14 14:48:15;;;;;;;10.23;8.10;;;;;;;26.94;32.50;98926.47;7036812;28;20209;-80
2022/04/14 14:51:37;;;;;;;12.33;9.40;;;;;;;26.60;34.96;98912.19;7037012;28;20243;-79
2022/04/14 14:54:59;;;;;;;17.23;10.97;;;;;;;26.97;34.74;98933.34;7036436;28;20309;-79
2022/04/14 15:02:01;;;;;;;15.73;11.70;;;;;;;26.42;36.36;98932.44;7034736;28;20190;-79
2022/04/14 15:05:23;;;;;;;11.10;10.00;;;;;;;26.63;35.96;98930.97;7036652;28;20185;-79
2022/04/14 15:08:44;;;;;;;16.10;10.27;;;;;;;26.21;36.06;98922.88;7035921;28;20216;-81
2022/04/14 15:12:07;;;;;;;13.53;11.53;;;;;;;26.10;37.06;98931.63;7019202;28;20701;-80
2022/04/14 15:15:30;;;;;;;12.63;11.23;;;;;;;26.69;35.82;98926.13;7032048;28;20253;-79
2022/04/14 15:18:52;;;;;;;12.73;10.90;;;;;;;25.76;36.65;98922.75;7023328;28;20208;-79
2022/04/14 15:22:15;;;;;;;13.77;11.13;;;;;;;25.55;37.45;98935.25;7027940;28;20204;-78
2022/04/14 15:25:36;;;;;;;14.53;10.93;;;;;;;26.00;37.33;98929.03;7026416;28;20596;-79
2022/04/14 15:28:58;;;;;;;12.20;10.83;;;;;;;26.33;36.31;98933.44;7033949;28;20267;-81
2022/04/14 15:32:21;;;;;;;14.40;10.43;;;;;;;26.30;36.78;98926.56;7023274;28;20205;-79
2022/04/14 15:35:43;;;;;;;13.83;10.37;;;;;;;25.94;36.88;98936.59;7035464;28;20205;-79
2022/04/14 15:39:04;;;;;;;12.73;10.83;;;;;;;25.69;37.23;98920.41;7016689;28;20227;-79
2022/04/14 15:42:28;;;;;;;13.13;10.53;;;;;;;25.89;36.79;98928.34;7015307;28;21590;-79
2022/04/14 15:45:49;;;;;;;14.57;10.90;;;;;;;26.09;37.01;98944.66;7034260;28;20200;-79
2022/04/14 15:49:13;;;;;;;13.10;10.20;;;;;;;26.01;37.49;98944.50;7031665;28;20217;-79